Rockford, Washington
Current Conditions -  °F | °C
As of 9:53 PM on Tuesday 21 Oct 2014 (Local Time) from KSFF Reporting Station
Clear Clear  
Wind Chill: 48°   Ceiling: Unl
Heat Index: 48°   Visibility: 10mi
Dew Point: 41°   Wind: 3mph
Humidity: 77%   Direction: 40°NE
Pressure: 29.98"   Gusts: NA
Location:  47.45°N, 117.13°W
Report Text: KSFF 220453Z 04003KT 10SM CLR 09/05 A2998 RMK AO2 SLP154 T00890050
Loading
Personal Weather Stations






























Interactive Weather Map New forecast layout! Learn more

10-Day Weather Forecast

Advertisements
Track Severe Weather on mobile